sensor_id;sensor_type;location;lat;lon;timestamp;P1;durP1;ratioP1;P2;durP2;ratioP2
80340;SDS011;69656;44.498;0.166;2023-07-31T00:00:46;10.40;;;2.70;;
80340;SDS011;69656;44.498;0.166;2023-07-31T00:06:18;11.87;;;2.80;;
80340;SDS011;69656;44.498;0.166;2023-07-31T00:11:52;8.20;;;3.17;;
80340;SDS011;69656;44.498;0.166;2023-07-31T00:17:25;8.50;;;2.60;;
80340;SDS011;69656;44.498;0.166;2023-07-31T00:22:58;6.80;;;2.40;;
80340;SDS011;69656;44.498;0.166;2023-07-31T00:28:32;6.47;;;2.53;;
80340;SDS011;69656;44.498;0.166;2023-07-31T00:34:04;10.80;;;2.63;;
80340;SDS011;69656;44.498;0.166;2023-07-31T00:39:37;6.57;;;2.43;;
80340;SDS011;69656;44.498;0.166;2023-07-31T00:45:10;12.57;;;3.03;;
80340;SDS011;69656;44.498;0.166;2023-07-31T00:50:43;8.00;;;2.53;;
80340;SDS011;69656;44.498;0.166;2023-07-31T00:56:15;10.07;;;2.97;;
80340;SDS011;69656;44.498;0.166;2023-07-31T01:01:48;9.93;;;3.23;;
80340;SDS011;69656;44.498;0.166;2023-07-31T01:07:22;7.83;;;2.37;;
80340;SDS011;69656;44.498;0.166;2023-07-31T01:12:54;8.07;;;2.90;;
80340;SDS011;69656;44.498;0.166;2023-07-31T01:18:27;15.67;;;3.03;;
80340;SDS011;69656;44.498;0.166;2023-07-31T01:24:07;9.57;;;2.93;;
80340;SDS011;69656;44.498;0.166;2023-07-31T01:29:33;12.13;;;2.80;;
80340;SDS011;69656;44.498;0.166;2023-07-31T01:35:06;7.50;;;2.83;;
80340;SDS011;69656;44.498;0.166;2023-07-31T01:40:40;10.87;;;3.67;;
80340;SDS011;69656;44.498;0.166;2023-07-31T01:46:10;8.33;;;2.73;;
80340;SDS011;69656;44.498;0.166;2023-07-31T01:51:42;10.20;;;2.70;;
80340;SDS011;69656;44.498;0.166;2023-07-31T01:57:14;11.63;;;3.20;;
80340;SDS011;69656;44.498;0.166;2023-07-31T02:02:47;7.77;;;3.10;;
80340;SDS011;69656;44.498;0.166;2023-07-31T02:08:19;11.43;;;3.07;;
80340;SDS011;69656;44.498;0.166;2023-07-31T02:13:52;7.57;;;2.70;;
80340;SDS011;69656;44.498;0.166;2023-07-31T02:19:25;13.97;;;3.50;;
80340;SDS011;69656;44.498;0.166;2023-07-31T02:24:58;15.27;;;3.50;;
80340;SDS011;69656;44.498;0.166;2023-07-31T02:30:30;11.97;;;3.03;;
80340;SDS011;69656;44.498;0.166;2023-07-31T02:36:04;8.47;;;2.77;;
80340;SDS011;69656;44.498;0.166;2023-07-31T02:41:36;6.87;;;2.80;;
80340;SDS011;69656;44.498;0.166;2023-07-31T02:47:08;7.73;;;3.40;;
80340;SDS011;69656;44.498;0.166;2023-07-31T02:52:41;13.10;;;3.10;;
80340;SDS011;69656;44.498;0.166;2023-07-31T02:58:14;9.03;;;2.53;;
80340;SDS011;69656;44.498;0.166;2023-07-31T03:03:48;8.57;;;2.97;;
80340;SDS011;69656;44.498;0.166;2023-07-31T03:09:21;7.60;;;2.37;;
80340;SDS011;69656;44.498;0.166;2023-07-31T03:14:55;6.27;;;2.80;;
80340;SDS011;69656;44.498;0.166;2023-07-31T03:20:27;9.77;;;2.90;;
80340;SDS011;69656;44.498;0.166;2023-07-31T03:26:02;11.83;;;3.23;;
80340;SDS011;69656;44.498;0.166;2023-07-31T03:31:33;7.43;;;2.70;;
80340;SDS011;69656;44.498;0.166;2023-07-31T03:37:05;9.43;;;2.77;;
80340;SDS011;69656;44.498;0.166;2023-07-31T03:42:37;8.40;;;2.93;;
80340;SDS011;69656;44.498;0.166;2023-07-31T03:48:10;5.30;;;2.30;;
80340;SDS011;69656;44.498;0.166;2023-07-31T03:53:42;5.97;;;3.43;;
80340;SDS011;69656;44.498;0.166;2023-07-31T03:59:15;7.47;;;2.63;;
80340;SDS011;69656;44.498;0.166;2023-07-31T04:04:47;8.00;;;2.90;;
80340;SDS011;69656;44.498;0.166;2023-07-31T04:10:20;6.73;;;3.00;;
80340;SDS011;69656;44.498;0.166;2023-07-31T04:15:52;7.83;;;3.07;;
80340;SDS011;69656;44.498;0.166;2023-07-31T04:21:24;8.60;;;2.43;;
80340;SDS011;69656;44.498;0.166;2023-07-31T04:26:57;10.77;;;2.70;;
80340;SDS011;69656;44.498;0.166;2023-07-31T04:32:29;6.73;;;3.10;;
80340;SDS011;69656;44.498;0.166;2023-07-31T04:38:01;6.00;;;3.00;;
80340;SDS011;69656;44.498;0.166;2023-07-31T04:43:33;8.90;;;2.77;;
80340;SDS011;69656;44.498;0.166;2023-07-31T04:49:07;7.67;;;2.50;;
80340;SDS011;69656;44.498;0.166;2023-07-31T04:54:41;6.47;;;2.90;;
80340;SDS011;69656;44.498;0.166;2023-07-31T05:00:13;6.97;;;3.07;;
80340;SDS011;69656;44.498;0.166;2023-07-31T05:05:44;11.87;;;2.97;;
80340;SDS011;69656;44.498;0.166;2023-07-31T05:11:16;8.57;;;2.80;;
80340;SDS011;69656;44.498;0.166;2023-07-31T05:16:49;9.47;;;2.97;;
80340;SDS011;69656;44.498;0.166;2023-07-31T05:22:21;8.07;;;2.87;;
80340;SDS011;69656;44.498;0.166;2023-07-31T05:27:54;8.77;;;3.30;;
80340;SDS011;69656;44.498;0.166;2023-07-31T05:33:27;10.77;;;3.90;;
80340;SDS011;69656;44.498;0.166;2023-07-31T05:39:01;10.40;;;3.43;;
80340;SDS011;69656;44.498;0.166;2023-07-31T05:44:34;11.53;;;3.87;;
80340;SDS011;69656;44.498;0.166;2023-07-31T05:50:08;9.83;;;3.23;;
80340;SDS011;69656;44.498;0.166;2023-07-31T05:55:42;6.93;;;3.20;;
80340;SDS011;69656;44.498;0.166;2023-07-31T06:01:15;9.20;;;3.03;;
80340;SDS011;69656;44.498;0.166;2023-07-31T06:06:46;11.57;;;3.83;;
80340;SDS011;69656;44.498;0.166;2023-07-31T06:12:18;10.77;;;3.40;;
80340;SDS011;69656;44.498;0.166;2023-07-31T06:17:50;13.67;;;2.97;;
80340;SDS011;69656;44.498;0.166;2023-07-31T06:23:22;8.30;;;4.13;;
80340;SDS011;69656;44.498;0.166;2023-07-31T06:28:55;12.27;;;3.73;;
80340;SDS011;69656;44.498;0.166;2023-07-31T06:34:28;9.50;;;3.13;;
80340;SDS011;69656;44.498;0.166;2023-07-31T06:40:00;8.70;;;3.03;;
80340;SDS011;69656;44.498;0.166;2023-07-31T06:45:34;12.07;;;3.27;;
80340;SDS011;69656;44.498;0.166;2023-07-31T06:51:06;7.90;;;2.97;;
80340;SDS011;69656;44.498;0.166;2023-07-31T06:56:39;10.20;;;3.20;;
80340;SDS011;69656;44.498;0.166;2023-07-31T07:02:11;14.63;;;3.27;;
80340;SDS011;69656;44.498;0.166;2023-07-31T07:07:44;7.50;;;3.60;;
80340;SDS011;69656;44.498;0.166;2023-07-31T07:13:18;13.00;;;3.73;;
80340;SDS011;69656;44.498;0.166;2023-07-31T07:18:50;11.47;;;4.20;;
80340;SDS011;69656;44.498;0.166;2023-07-31T07:24:23;10.90;;;4.13;;
80340;SDS011;69656;44.498;0.166;2023-07-31T07:29:56;10.37;;;3.50;;
80340;SDS011;69656;44.498;0.166;2023-07-31T07:35:29;7.77;;;3.00;;
80340;SDS011;69656;44.498;0.166;2023-07-31T07:41:02;11.33;;;3.80;;
80340;SDS011;69656;44.498;0.166;2023-07-31T07:46:35;9.83;;;3.13;;
80340;SDS011;69656;44.498;0.166;2023-07-31T07:52:09;15.80;;;3.40;;
80340;SDS011;69656;44.498;0.166;2023-07-31T07:57:42;11.27;;;3.63;;
80340;SDS011;69656;44.498;0.166;2023-07-31T08:03:15;16.77;;;3.50;;
80340;SDS011;69656;44.498;0.166;2023-07-31T08:08:48;11.10;;;4.23;;
80340;SDS011;69656;44.498;0.166;2023-07-31T08:14:22;12.43;;;3.30;;
80340;SDS011;69656;44.498;0.166;2023-07-31T08:19:56;8.80;;;3.00;;
80340;SDS011;69656;44.498;0.166;2023-07-31T08:25:29;6.93;;;2.30;;
80340;SDS011;69656;44.498;0.166;2023-07-31T08:31:03;7.93;;;3.37;;
80340;SDS011;69656;44.498;0.166;2023-07-31T08:36:36;7.30;;;2.80;;
80340;SDS011;69656;44.498;0.166;2023-07-31T08:42:09;10.07;;;2.97;;
80340;SDS011;69656;44.498;0.166;2023-07-31T08:47:44;7.67;;;3.13;;
80340;SDS011;69656;44.498;0.166;2023-07-31T08:53:14;5.57;;;1.93;;
80340;SDS011;69656;44.498;0.166;2023-07-31T08:58:46;6.40;;;2.50;;
80340;SDS011;69656;44.498;0.166;2023-07-31T09:04:20;6.63;;;2.50;;
80340;SDS011;69656;44.498;0.166;2023-07-31T09:09:52;7.73;;;2.17;;
80340;SDS011;69656;44.498;0.166;2023-07-31T09:15:25;5.23;;;2.03;;
80340;SDS011;69656;44.498;0.166;2023-07-31T09:21:02;4.77;;;2.20;;
80340;SDS011;69656;44.498;0.166;2023-07-31T09:26:31;12.80;;;2.53;;
80340;SDS011;69656;44.498;0.166;2023-07-31T09:32:03;5.20;;;1.87;;
80340;SDS011;69656;44.498;0.166;2023-07-31T09:37:37;7.07;;;2.30;;
80340;SDS011;69656;44.498;0.166;2023-07-31T09:43:10;4.70;;;1.60;;
80340;SDS011;69656;44.498;0.166;2023-07-31T09:48:42;11.10;;;2.07;;
80340;SDS011;69656;44.498;0.166;2023-07-31T09:54:15;4.33;;;1.80;;
80340;SDS011;69656;44.498;0.166;2023-07-31T09:59:47;6.13;;;2.33;;
80340;SDS011;69656;44.498;0.166;2023-07-31T10:05:20;4.60;;;1.90;;
80340;SDS011;69656;44.498;0.166;2023-07-31T10:10:52;8.23;;;1.97;;
80340;SDS011;69656;44.498;0.166;2023-07-31T10:16:26;5.83;;;2.30;;
80340;SDS011;69656;44.498;0.166;2023-07-31T10:22:00;5.17;;;2.13;;
80340;SDS011;69656;44.498;0.166;2023-07-31T10:27:31;5.10;;;2.10;;
80340;SDS011;69656;44.498;0.166;2023-07-31T10:33:04;4.07;;;2.13;;
80340;SDS011;69656;44.498;0.166;2023-07-31T10:38:37;11.67;;;2.40;;
80340;SDS011;69656;44.498;0.166;2023-07-31T10:44:09;7.60;;;2.17;;
80340;SDS011;69656;44.498;0.166;2023-07-31T10:49:44;9.53;;;2.37;;
80340;SDS011;69656;44.498;0.166;2023-07-31T10:55:15;9.43;;;2.67;;
80340;SDS011;69656;44.498;0.166;2023-07-31T11:00:46;6.93;;;2.77;;
80340;SDS011;69656;44.498;0.166;2023-07-31T11:06:19;4.33;;;2.00;;
80340;SDS011;69656;44.498;0.166;2023-07-31T11:11:51;3.77;;;2.30;;
80340;SDS011;69656;44.498;0.166;2023-07-31T11:17:24;10.17;;;2.37;;
80340;SDS011;69656;44.498;0.166;2023-07-31T11:22:57;7.57;;;2.97;;
80340;SDS011;69656;44.498;0.166;2023-07-31T11:28:30;3.20;;;2.10;;
80340;SDS011;69656;44.498;0.166;2023-07-31T11:34:04;6.47;;;2.43;;
80340;SDS011;69656;44.498;0.166;2023-07-31T11:39:33;5.53;;;2.17;;
80340;SDS011;69656;44.498;0.166;2023-07-31T11:45:06;4.83;;;2.20;;
80340;SDS011;69656;44.498;0.166;2023-07-31T11:50:39;3.23;;;2.00;;
80340;SDS011;69656;44.498;0.166;2023-07-31T11:56:12;5.27;;;2.53;;
80340;SDS011;69656;44.498;0.166;2023-07-31T12:01:43;4.50;;;2.27;;
80340;SDS011;69656;44.498;0.166;2023-07-31T12:07:16;3.53;;;2.07;;
80340;SDS011;69656;44.498;0.166;2023-07-31T12:12:55;4.77;;;2.03;;
80340;SDS011;69656;44.498;0.166;2023-07-31T12:18:24;2.03;;;1.60;;
80340;SDS011;69656;44.498;0.166;2023-07-31T12:23:55;3.53;;;1.97;;
80340;SDS011;69656;44.498;0.166;2023-07-31T12:29:33;5.13;;;2.30;;
80340;SDS011;69656;44.498;0.166;2023-07-31T12:35:00;4.47;;;2.07;;
80340;SDS011;69656;44.498;0.166;2023-07-31T12:40:35;3.43;;;2.33;;
80340;SDS011;69656;44.498;0.166;2023-07-31T12:46:06;5.27;;;2.13;;
80340;SDS011;69656;44.498;0.166;2023-07-31T12:51:39;5.23;;;2.27;;
80340;SDS011;69656;44.498;0.166;2023-07-31T12:57:12;3.73;;;2.30;;
80340;SDS011;69656;44.498;0.166;2023-07-31T13:02:44;5.90;;;2.57;;
80340;SDS011;69656;44.498;0.166;2023-07-31T13:08:16;6.40;;;2.43;;
80340;SDS011;69656;44.498;0.166;2023-07-31T13:13:48;5.97;;;2.20;;
80340;SDS011;69656;44.498;0.166;2023-07-31T13:19:22;7.03;;;2.83;;
80340;SDS011;69656;44.498;0.166;2023-07-31T13:24:54;5.27;;;2.20;;
80340;SDS011;69656;44.498;0.166;2023-07-31T13:30:27;2.80;;;2.10;;
80340;SDS011;69656;44.498;0.166;2023-07-31T13:36:00;3.23;;;2.00;;
80340;SDS011;69656;44.498;0.166;2023-07-31T13:41:32;4.07;;;2.27;;
80340;SDS011;69656;44.498;0.166;2023-07-31T13:47:05;4.03;;;2.00;;
80340;SDS011;69656;44.498;0.166;2023-07-31T13:52:37;6.90;;;2.50;;
80340;SDS011;69656;44.498;0.166;2023-07-31T13:58:10;5.03;;;2.50;;
80340;SDS011;69656;44.498;0.166;2023-07-31T14:03:43;4.20;;;2.67;;
80340;SDS011;69656;44.498;0.166;2023-07-31T14:09:16;6.23;;;3.23;;
80340;SDS011;69656;44.498;0.166;2023-07-31T14:14:49;5.10;;;2.27;;
80340;SDS011;69656;44.498;0.166;2023-07-31T14:20:21;4.73;;;2.60;;
80340;SDS011;69656;44.498;0.166;2023-07-31T14:25:55;3.63;;;2.07;;
80340;SDS011;69656;44.498;0.166;2023-07-31T14:31:28;7.70;;;2.87;;
80340;SDS011;69656;44.498;0.166;2023-07-31T14:37:01;9.97;;;2.57;;
80340;SDS011;69656;44.498;0.166;2023-07-31T14:42:34;4.67;;;3.07;;
80340;SDS011;69656;44.498;0.166;2023-07-31T14:48:06;3.57;;;2.33;;
80340;SDS011;69656;44.498;0.166;2023-07-31T14:53:39;4.73;;;2.37;;
80340;SDS011;69656;44.498;0.166;2023-07-31T14:59:12;5.80;;;2.70;;
80340;SDS011;69656;44.498;0.166;2023-07-31T15:04:45;3.33;;;2.53;;
80340;SDS011;69656;44.498;0.166;2023-07-31T15:10:18;8.23;;;2.50;;
80340;SDS011;69656;44.498;0.166;2023-07-31T15:15:52;3.97;;;2.70;;
80340;SDS011;69656;44.498;0.166;2023-07-31T15:21:24;11.33;;;3.03;;
80340;SDS011;69656;44.498;0.166;2023-07-31T15:26:57;4.67;;;2.77;;
80340;SDS011;69656;44.498;0.166;2023-07-31T15:32:28;5.40;;;2.57;;
80340;SDS011;69656;44.498;0.166;2023-07-31T15:38:00;5.13;;;2.77;;
80340;SDS011;69656;44.498;0.166;2023-07-31T15:43:33;4.33;;;2.80;;
80340;SDS011;69656;44.498;0.166;2023-07-31T15:49:07;3.60;;;2.60;;
80340;SDS011;69656;44.498;0.166;2023-07-31T15:54:40;2.80;;;2.13;;
80340;SDS011;69656;44.498;0.166;2023-07-31T16:00:12;5.90;;;2.50;;
80340;SDS011;69656;44.498;0.166;2023-07-31T16:05:46;4.03;;;2.33;;
80340;SDS011;69656;44.498;0.166;2023-07-31T16:11:18;4.43;;;1.77;;
80340;SDS011;69656;44.498;0.166;2023-07-31T16:16:51;3.37;;;2.27;;
80340;SDS011;69656;44.498;0.166;2023-07-31T16:22:24;3.63;;;2.10;;
80340;SDS011;69656;44.498;0.166;2023-07-31T16:27:58;4.17;;;2.40;;
80340;SDS011;69656;44.498;0.166;2023-07-31T16:33:31;2.27;;;1.77;;
80340;SDS011;69656;44.498;0.166;2023-07-31T16:39:05;3.93;;;1.83;;
80340;SDS011;69656;44.498;0.166;2023-07-31T16:44:37;2.70;;;2.00;;
80340;SDS011;69656;44.498;0.166;2023-07-31T16:50:09;8.77;;;2.43;;
80340;SDS011;69656;44.498;0.166;2023-07-31T16:55:41;7.60;;;1.97;;
80340;SDS011;69656;44.498;0.166;2023-07-31T17:01:14;2.47;;;1.70;;
80340;SDS011;69656;44.498;0.166;2023-07-31T17:06:48;3.87;;;2.17;;
80340;SDS011;69656;44.498;0.166;2023-07-31T17:12:20;7.40;;;2.33;;
80340;SDS011;69656;44.498;0.166;2023-07-31T17:17:54;2.00;;;1.80;;
80340;SDS011;69656;44.498;0.166;2023-07-31T17:23:26;4.87;;;2.17;;
80340;SDS011;69656;44.498;0.166;2023-07-31T17:28:58;3.07;;;1.90;;
80340;SDS011;69656;44.498;0.166;2023-07-31T17:34:32;4.30;;;2.23;;
80340;SDS011;69656;44.498;0.166;2023-07-31T17:40:05;3.13;;;2.00;;
80340;SDS011;69656;44.498;0.166;2023-07-31T17:45:36;3.90;;;2.43;;
80340;SDS011;69656;44.498;0.166;2023-07-31T17:51:08;4.93;;;2.27;;
80340;SDS011;69656;44.498;0.166;2023-07-31T17:56:41;1.93;;;1.63;;
80340;SDS011;69656;44.498;0.166;2023-07-31T18:02:14;2.70;;;2.17;;
80340;SDS011;69656;44.498;0.166;2023-07-31T18:07:47;2.93;;;1.80;;
80340;SDS011;69656;44.498;0.166;2023-07-31T18:13:21;3.03;;;1.77;;
80340;SDS011;69656;44.498;0.166;2023-07-31T18:18:53;2.83;;;1.70;;
80340;SDS011;69656;44.498;0.166;2023-07-31T18:24:25;4.97;;;2.00;;
80340;SDS011;69656;44.498;0.166;2023-07-31T18:29:57;5.10;;;2.10;;
80340;SDS011;69656;44.498;0.166;2023-07-31T18:35:29;3.77;;;1.60;;
80340;SDS011;69656;44.498;0.166;2023-07-31T18:41:03;3.87;;;1.87;;
80340;SDS011;69656;44.498;0.166;2023-07-31T18:46:33;3.07;;;2.20;;
80340;SDS011;69656;44.498;0.166;2023-07-31T18:52:06;4.10;;;2.20;;
80340;SDS011;69656;44.498;0.166;2023-07-31T18:57:37;2.40;;;1.77;;
80340;SDS011;69656;44.498;0.166;2023-07-31T19:03:10;6.97;;;2.13;;
80340;SDS011;69656;44.498;0.166;2023-07-31T19:08:42;3.30;;;1.53;;
80340;SDS011;69656;44.498;0.166;2023-07-31T19:14:14;3.57;;;2.17;;
80340;SDS011;69656;44.498;0.166;2023-07-31T19:19:46;3.70;;;2.00;;
80340;SDS011;69656;44.498;0.166;2023-07-31T19:25:19;4.90;;;2.30;;
80340;SDS011;69656;44.498;0.166;2023-07-31T19:30:52;2.97;;;2.50;;
80340;SDS011;69656;44.498;0.166;2023-07-31T19:36:24;4.90;;;2.60;;
80340;SDS011;69656;44.498;0.166;2023-07-31T19:41:56;10.37;;;2.80;;
80340;SDS011;69656;44.498;0.166;2023-07-31T19:47:29;8.17;;;2.47;;
80340;SDS011;69656;44.498;0.166;2023-07-31T19:53:02;7.73;;;2.50;;
80340;SDS011;69656;44.498;0.166;2023-07-31T19:58:35;3.63;;;1.77;;
80340;SDS011;69656;44.498;0.166;2023-07-31T20:04:08;5.00;;;2.23;;
80340;SDS011;69656;44.498;0.166;2023-07-31T20:09:40;4.10;;;2.07;;
80340;SDS011;69656;44.498;0.166;2023-07-31T20:15:20;4.63;;;2.37;;
80340;SDS011;69656;44.498;0.166;2023-07-31T20:20:46;5.03;;;2.37;;
80340;SDS011;69656;44.498;0.166;2023-07-31T20:26:18;10.80;;;2.30;;
80340;SDS011;69656;44.498;0.166;2023-07-31T20:31:51;2.93;;;2.20;;
80340;SDS011;69656;44.498;0.166;2023-07-31T20:37:24;5.50;;;2.20;;
80340;SDS011;69656;44.498;0.166;2023-07-31T20:42:57;4.60;;;2.10;;
80340;SDS011;69656;44.498;0.166;2023-07-31T20:48:29;3.40;;;2.27;;
80340;SDS011;69656;44.498;0.166;2023-07-31T20:54:01;5.67;;;2.90;;
80340;SDS011;69656;44.498;0.166;2023-07-31T20:59:35;4.53;;;2.00;;
80340;SDS011;69656;44.498;0.166;2023-07-31T21:05:08;4.77;;;2.20;;
80340;SDS011;69656;44.498;0.166;2023-07-31T21:10:40;3.63;;;2.27;;
80340;SDS011;69656;44.498;0.166;2023-07-31T21:16:12;4.47;;;2.00;;
80340;SDS011;69656;44.498;0.166;2023-07-31T21:21:45;6.23;;;3.13;;
80340;SDS011;69656;44.498;0.166;2023-07-31T21:27:18;5.70;;;2.80;;
80340;SDS011;69656;44.498;0.166;2023-07-31T21:32:50;5.97;;;2.50;;
80340;SDS011;69656;44.498;0.166;2023-07-31T21:38:22;5.13;;;2.60;;
80340;SDS011;69656;44.498;0.166;2023-07-31T21:43:55;3.90;;;2.53;;
80340;SDS011;69656;44.498;0.166;2023-07-31T21:49:27;7.70;;;2.67;;
80340;SDS011;69656;44.498;0.166;2023-07-31T21:55:00;5.33;;;2.60;;
80340;SDS011;69656;44.498;0.166;2023-07-31T22:00:32;7.33;;;2.53;;
80340;SDS011;69656;44.498;0.166;2023-07-31T22:06:06;9.13;;;2.53;;
80340;SDS011;69656;44.498;0.166;2023-07-31T22:11:38;5.40;;;2.23;;
80340;SDS011;69656;44.498;0.166;2023-07-31T22:17:11;9.17;;;2.90;;
80340;SDS011;69656;44.498;0.166;2023-07-31T22:22:44;6.67;;;2.30;;
80340;SDS011;69656;44.498;0.166;2023-07-31T22:28:17;6.47;;;2.10;;
80340;SDS011;69656;44.498;0.166;2023-07-31T22:33:50;7.23;;;2.70;;
80340;SDS011;69656;44.498;0.166;2023-07-31T22:39:21;3.97;;;2.30;;
80340;SDS011;69656;44.498;0.166;2023-07-31T22:44:53;2.77;;;2.20;;
80340;SDS011;69656;44.498;0.166;2023-07-31T22:50:25;10.07;;;2.77;;
80340;SDS011;69656;44.498;0.166;2023-07-31T22:56:02;7.67;;;2.60;;
80340;SDS011;69656;44.498;0.166;2023-07-31T23:01:31;5.20;;;2.33;;
80340;SDS011;69656;44.498;0.166;2023-07-31T23:07:05;6.20;;;2.70;;
80340;SDS011;69656;44.498;0.166;2023-07-31T23:12:38;5.47;;;2.73;;
80340;SDS011;69656;44.498;0.166;2023-07-31T23:18:10;7.23;;;2.70;;
80340;SDS011;69656;44.498;0.166;2023-07-31T23:23:42;4.97;;;2.77;;
80340;SDS011;69656;44.498;0.166;2023-07-31T23:29:15;6.50;;;2.20;;
80340;SDS011;69656;44.498;0.166;2023-07-31T23:34:48;4.93;;;2.40;;
80340;SDS011;69656;44.498;0.166;2023-07-31T23:40:21;7.53;;;2.60;;
80340;SDS011;69656;44.498;0.166;2023-07-31T23:45:53;4.40;;;2.50;;
80340;SDS011;69656;44.498;0.166;2023-07-31T23:51:27;5.13;;;2.90;;
80340;SDS011;69656;44.498;0.166;2023-07-31T23:56:59;3.87;;;2.30;;
